sensor_id;sensor_type;location;lat;lon;timestamp;P1;durP1;ratioP1;P2;durP2;ratioP2
20655;SDS011;10487;53.320;8.672;2023-02-12T00:00:46;0.20;;;0.20;;
20655;SDS011;10487;53.320;8.672;2023-02-12T00:03:48;0.20;;;0.20;;
20655;SDS011;10487;53.320;8.672;2023-02-12T00:06:50;0.13;;;0.13;;
20655;SDS011;10487;53.320;8.672;2023-02-12T00:09:51;0.15;;;0.15;;
20655;SDS011;10487;53.320;8.672;2023-02-12T00:12:53;0.20;;;0.20;;
20655;SDS011;10487;53.320;8.672;2023-02-12T00:15:54;0.20;;;0.20;;
20655;SDS011;10487;53.320;8.672;2023-02-12T00:18:57;0.10;;;0.10;;
20655;SDS011;10487;53.320;8.672;2023-02-12T00:21:59;0.20;;;0.20;;
20655;SDS011;10487;53.320;8.672;2023-02-12T00:25:00;0.10;;;0.10;;
20655;SDS011;10487;53.320;8.672;2023-02-12T00:28:02;0.10;;;0.10;;
20655;SDS011;10487;53.320;8.672;2023-02-12T00:31:07;0.10;;;0.10;;
20655;SDS011;10487;53.320;8.672;2023-02-12T00:34:13;0.20;;;0.20;;
20655;SDS011;10487;53.320;8.672;2023-02-12T00:37:15;0.22;;;0.15;;
20655;SDS011;10487;53.320;8.672;2023-02-12T00:40:17;0.20;;;0.20;;
20655;SDS011;10487;53.320;8.672;2023-02-12T00:43:18;0.10;;;0.10;;
20655;SDS011;10487;53.320;8.672;2023-02-12T00:46:20;0.20;;;0.20;;
20655;SDS011;10487;53.320;8.672;2023-02-12T00:49:22;0.10;;;0.10;;
20655;SDS011;10487;53.320;8.672;2023-02-12T00:52:24;0.10;;;0.10;;
20655;SDS011;10487;53.320;8.672;2023-02-12T00:55:26;0.20;;;0.20;;
20655;SDS011;10487;53.320;8.672;2023-02-12T00:58:28;0.20;;;0.20;;
20655;SDS011;10487;53.320;8.672;2023-02-12T01:01:29;0.20;;;0.20;;
20655;SDS011;10487;53.320;8.672;2023-02-12T01:04:31;0.20;;;0.20;;
20655;SDS011;10487;53.320;8.672;2023-02-12T01:07:33;0.20;;;0.20;;
20655;SDS011;10487;53.320;8.672;2023-02-12T01:10:34;0.20;;;0.20;;
20655;SDS011;10487;53.320;8.672;2023-02-12T01:13:36;0.20;;;0.20;;
20655;SDS011;10487;53.320;8.672;2023-02-12T01:16:38;0.15;;;0.15;;
20655;SDS011;10487;53.320;8.672;2023-02-12T01:19:40;0.10;;;0.10;;
20655;SDS011;10487;53.320;8.672;2023-02-12T01:22:42;0.20;;;0.20;;
20655;SDS011;10487;53.320;8.672;2023-02-12T01:25:45;0.20;;;0.20;;
20655;SDS011;10487;53.320;8.672;2023-02-12T01:28:48;0.15;;;0.15;;
20655;SDS011;10487;53.320;8.672;2023-02-12T01:31:52;0.20;;;0.20;;
20655;SDS011;10487;53.320;8.672;2023-02-12T01:34:54;0.10;;;0.10;;
20655;SDS011;10487;53.320;8.672;2023-02-12T01:37:55;0.20;;;0.20;;
20655;SDS011;10487;53.320;8.672;2023-02-12T01:41:06;0.20;;;0.20;;
20655;SDS011;10487;53.320;8.672;2023-02-12T01:44:22;0.20;;;0.20;;
20655;SDS011;10487;53.320;8.672;2023-02-12T01:47:26;0.20;;;0.20;;
20655;SDS011;10487;53.320;8.672;2023-02-12T01:50:28;0.20;;;0.20;;
20655;SDS011;10487;53.320;8.672;2023-02-12T01:53:34;0.10;;;0.10;;
20655;SDS011;10487;53.320;8.672;2023-02-12T01:56:39;0.17;;;0.17;;
20655;SDS011;10487;53.320;8.672;2023-02-12T01:59:42;0.10;;;0.10;;
20655;SDS011;10487;53.320;8.672;2023-02-12T02:02:50;0.17;;;0.15;;
20655;SDS011;10487;53.320;8.672;2023-02-12T02:05:57;0.13;;;0.13;;
20655;SDS011;10487;53.320;8.672;2023-02-12T02:09:03;0.20;;;0.20;;
20655;SDS011;10487;53.320;8.672;2023-02-12T02:12:06;0.20;;;0.20;;
20655;SDS011;10487;53.320;8.672;2023-02-12T02:15:27;0.20;;;0.20;;
20655;SDS011;10487;53.320;8.672;2023-02-12T02:18:34;0.20;;;0.20;;
20655;SDS011;10487;53.320;8.672;2023-02-12T02:22:01;0.20;;;0.20;;
20655;SDS011;10487;53.320;8.672;2023-02-12T02:32:37;0.20;;;0.20;;
20655;SDS011;10487;53.320;8.672;2023-02-12T02:36:03;0.20;;;0.20;;
20655;SDS011;10487;53.320;8.672;2023-02-12T02:45:46;0.22;;;0.22;;
20655;SDS011;10487;53.320;8.672;2023-02-12T02:48:54;0.22;;;0.22;;
20655;SDS011;10487;53.320;8.672;2023-02-12T02:52:05;0.15;;;0.15;;
20655;SDS011;10487;53.320;8.672;2023-02-12T02:55:11;0.20;;;0.20;;
20655;SDS011;10487;53.320;8.672;2023-02-12T02:58:21;0.20;;;0.20;;
20655;SDS011;10487;53.320;8.672;2023-02-12T03:01:28;0.20;;;0.20;;
20655;SDS011;10487;53.320;8.672;2023-02-12T03:04:38;0.28;;;0.28;;
20655;SDS011;10487;53.320;8.672;2023-02-12T03:07:45;0.28;;;0.28;;
20655;SDS011;10487;53.320;8.672;2023-02-12T03:11:00;0.20;;;0.20;;
20655;SDS011;10487;53.320;8.672;2023-02-12T03:14:17;0.20;;;0.20;;
20655;SDS011;10487;53.320;8.672;2023-02-12T03:17:25;0.20;;;0.20;;
20655;SDS011;10487;53.320;8.672;2023-02-12T03:20:32;0.20;;;0.20;;
20655;SDS011;10487;53.320;8.672;2023-02-12T03:23:41;0.20;;;0.20;;
20655;SDS011;10487;53.320;8.672;2023-02-12T03:26:59;0.10;;;0.10;;
20655;SDS011;10487;53.320;8.672;2023-02-12T03:30:24;0.13;;;0.13;;
20655;SDS011;10487;53.320;8.672;2023-02-12T03:37:04;0.22;;;0.22;;
20655;SDS011;10487;53.320;8.672;2023-02-12T03:46:29;0.10;;;0.10;;
20655;SDS011;10487;53.320;8.672;2023-02-12T03:52:43;0.20;;;0.20;;
20655;SDS011;10487;53.320;8.672;2023-02-12T03:55:46;0.10;;;0.10;;
20655;SDS011;10487;53.320;8.672;2023-02-12T03:58:51;0.40;;;0.40;;
20655;SDS011;10487;53.320;8.672;2023-02-12T04:01:54;0.10;;;0.10;;
20655;SDS011;10487;53.320;8.672;2023-02-12T04:05:03;0.20;;;0.20;;
20655;SDS011;10487;53.320;8.672;2023-02-12T04:08:07;0.10;;;0.10;;
20655;SDS011;10487;53.320;8.672;2023-02-12T04:18:12;0.20;;;0.20;;
20655;SDS011;10487;53.320;8.672;2023-02-12T04:24:31;0.20;;;0.20;;
20655;SDS011;10487;53.320;8.672;2023-02-12T04:27:58;0.25;;;0.25;;
20655;SDS011;10487;53.320;8.672;2023-02-12T04:31:22;0.20;;;0.20;;
20655;SDS011;10487;53.320;8.672;2023-02-12T04:37:41;0.20;;;0.20;;
20655;SDS011;10487;53.320;8.672;2023-02-12T04:40:48;0.30;;;0.20;;
20655;SDS011;10487;53.320;8.672;2023-02-12T04:43:52;0.20;;;0.20;;
20655;SDS011;10487;53.320;8.672;2023-02-12T04:46:53;0.20;;;0.20;;
20655;SDS011;10487;53.320;8.672;2023-02-12T04:49:55;0.20;;;0.20;;
20655;SDS011;10487;53.320;8.672;2023-02-12T04:52:56;0.20;;;0.20;;
20655;SDS011;10487;53.320;8.672;2023-02-12T04:55:58;0.20;;;0.20;;
20655;SDS011;10487;53.320;8.672;2023-02-12T04:59:00;0.20;;;0.20;;
20655;SDS011;10487;53.320;8.672;2023-02-12T05:02:01;0.20;;;0.20;;
20655;SDS011;10487;53.320;8.672;2023-02-12T05:05:03;0.20;;;0.20;;
20655;SDS011;10487;53.320;8.672;2023-02-12T05:08:05;0.20;;;0.20;;
20655;SDS011;10487;53.320;8.672;2023-02-12T05:11:07;0.20;;;0.20;;
20655;SDS011;10487;53.320;8.672;2023-02-12T05:14:10;0.20;;;0.20;;
20655;SDS011;10487;53.320;8.672;2023-02-12T05:17:12;0.28;;;0.28;;
20655;SDS011;10487;53.320;8.672;2023-02-12T05:20:13;0.20;;;0.20;;
20655;SDS011;10487;53.320;8.672;2023-02-12T05:23:15;0.20;;;0.20;;
20655;SDS011;10487;53.320;8.672;2023-02-12T05:26:17;0.20;;;0.20;;
20655;SDS011;10487;53.320;8.672;2023-02-12T05:29:20;0.20;;;0.20;;
20655;SDS011;10487;53.320;8.672;2023-02-12T05:32:22;0.30;;;0.30;;
20655;SDS011;10487;53.320;8.672;2023-02-12T05:35:24;0.30;;;0.30;;
20655;SDS011;10487;53.320;8.672;2023-02-12T05:38:25;0.20;;;0.20;;
20655;SDS011;10487;53.320;8.672;2023-02-12T05:41:27;0.20;;;0.20;;
20655;SDS011;10487;53.320;8.672;2023-02-12T05:44:29;0.20;;;0.20;;
20655;SDS011;10487;53.320;8.672;2023-02-12T05:47:30;0.17;;;0.17;;
20655;SDS011;10487;53.320;8.672;2023-02-12T05:50:32;0.20;;;0.20;;
20655;SDS011;10487;53.320;8.672;2023-02-12T05:53:34;0.28;;;0.20;;
20655;SDS011;10487;53.320;8.672;2023-02-12T05:56:40;0.13;;;0.13;;
20655;SDS011;10487;53.320;8.672;2023-02-12T05:59:44;0.10;;;0.10;;
20655;SDS011;10487;53.320;8.672;2023-02-12T06:02:45;0.20;;;0.20;;
20655;SDS011;10487;53.320;8.672;2023-02-12T06:05:50;0.20;;;0.20;;
20655;SDS011;10487;53.320;8.672;2023-02-12T06:08:52;0.20;;;0.20;;
20655;SDS011;10487;53.320;8.672;2023-02-12T06:11:54;0.20;;;0.20;;
20655;SDS011;10487;53.320;8.672;2023-02-12T06:14:55;0.20;;;0.20;;
20655;SDS011;10487;53.320;8.672;2023-02-12T06:17:57;0.20;;;0.20;;
20655;SDS011;10487;53.320;8.672;2023-02-12T06:20:59;0.20;;;0.20;;
20655;SDS011;10487;53.320;8.672;2023-02-12T06:24:00;0.20;;;0.20;;
20655;SDS011;10487;53.320;8.672;2023-02-12T06:27:02;0.20;;;0.20;;
20655;SDS011;10487;53.320;8.672;2023-02-12T06:30:04;0.20;;;0.20;;
20655;SDS011;10487;53.320;8.672;2023-02-12T06:33:06;0.10;;;0.10;;
20655;SDS011;10487;53.320;8.672;2023-02-12T06:36:07;0.30;;;0.30;;
20655;SDS011;10487;53.320;8.672;2023-02-12T06:39:09;0.20;;;0.20;;
20655;SDS011;10487;53.320;8.672;2023-02-12T06:42:12;0.22;;;0.20;;
20655;SDS011;10487;53.320;8.672;2023-02-12T06:45:13;0.20;;;0.20;;
20655;SDS011;10487;53.320;8.672;2023-02-12T06:48:15;0.20;;;0.20;;
20655;SDS011;10487;53.320;8.672;2023-02-12T06:51:17;0.20;;;0.20;;
20655;SDS011;10487;53.320;8.672;2023-02-12T06:54:21;0.30;;;0.30;;
20655;SDS011;10487;53.320;8.672;2023-02-12T06:57:23;0.20;;;0.20;;
20655;SDS011;10487;53.320;8.672;2023-02-12T07:00:25;0.30;;;0.30;;
20655;SDS011;10487;53.320;8.672;2023-02-12T07:03:26;0.20;;;0.20;;
20655;SDS011;10487;53.320;8.672;2023-02-12T07:06:28;0.20;;;0.20;;
20655;SDS011;10487;53.320;8.672;2023-02-12T07:09:31;0.30;;;0.30;;
20655;SDS011;10487;53.320;8.672;2023-02-12T07:12:33;0.30;;;0.30;;
20655;SDS011;10487;53.320;8.672;2023-02-12T07:15:37;0.20;;;0.20;;
20655;SDS011;10487;53.320;8.672;2023-02-12T07:18:40;0.20;;;0.20;;
20655;SDS011;10487;53.320;8.672;2023-02-12T07:21:42;0.20;;;0.20;;
20655;SDS011;10487;53.320;8.672;2023-02-12T07:24:45;0.20;;;0.20;;
20655;SDS011;10487;53.320;8.672;2023-02-12T07:27:46;0.20;;;0.20;;
20655;SDS011;10487;53.320;8.672;2023-02-12T07:30:48;0.25;;;0.25;;
20655;SDS011;10487;53.320;8.672;2023-02-12T07:33:53;0.20;;;0.20;;
20655;SDS011;10487;53.320;8.672;2023-02-12T07:36:56;0.22;;;0.22;;
20655;SDS011;10487;53.320;8.672;2023-02-12T07:39:58;0.28;;;0.28;;
20655;SDS011;10487;53.320;8.672;2023-02-12T07:42:59;0.30;;;0.30;;
20655;SDS011;10487;53.320;8.672;2023-02-12T07:46:04;0.17;;;0.17;;
20655;SDS011;10487;53.320;8.672;2023-02-12T07:49:09;0.20;;;0.20;;
20655;SDS011;10487;53.320;8.672;2023-02-12T07:52:14;0.20;;;0.20;;
20655;SDS011;10487;53.320;8.672;2023-02-12T07:55:15;0.22;;;0.22;;
20655;SDS011;10487;53.320;8.672;2023-02-12T07:58:17;0.30;;;0.30;;
20655;SDS011;10487;53.320;8.672;2023-02-12T08:01:20;0.20;;;0.20;;
20655;SDS011;10487;53.320;8.672;2023-02-12T08:04:24;0.20;;;0.20;;
20655;SDS011;10487;53.320;8.672;2023-02-12T08:07:26;0.20;;;0.20;;
20655;SDS011;10487;53.320;8.672;2023-02-12T08:10:27;0.20;;;0.20;;
20655;SDS011;10487;53.320;8.672;2023-02-12T08:13:33;0.20;;;0.20;;
20655;SDS011;10487;53.320;8.672;2023-02-12T08:16:36;0.20;;;0.20;;
20655;SDS011;10487;53.320;8.672;2023-02-12T08:19:39;0.20;;;0.20;;
20655;SDS011;10487;53.320;8.672;2023-02-12T08:22:41;0.20;;;0.20;;
20655;SDS011;10487;53.320;8.672;2023-02-12T08:25:42;0.20;;;0.20;;
20655;SDS011;10487;53.320;8.672;2023-02-12T08:28:51;0.40;;;0.30;;
20655;SDS011;10487;53.320;8.672;2023-02-12T08:31:57;0.20;;;0.20;;
20655;SDS011;10487;53.320;8.672;2023-02-12T08:35:03;0.20;;;0.20;;
20655;SDS011;10487;53.320;8.672;2023-02-12T08:38:04;0.13;;;0.13;;
20655;SDS011;10487;53.320;8.672;2023-02-12T08:41:07;0.10;;;0.10;;
20655;SDS011;10487;53.320;8.672;2023-02-12T08:44:11;0.20;;;0.20;;
20655;SDS011;10487;53.320;8.672;2023-02-12T08:47:13;0.20;;;0.20;;
20655;SDS011;10487;53.320;8.672;2023-02-12T08:50:14;0.10;;;0.10;;
20655;SDS011;10487;53.320;8.672;2023-02-12T08:53:16;0.10;;;0.10;;
20655;SDS011;10487;53.320;8.672;2023-02-12T08:56:18;0.10;;;0.10;;
20655;SDS011;10487;53.320;8.672;2023-02-12T08:59:20;0.20;;;0.20;;
20655;SDS011;10487;53.320;8.672;2023-02-12T09:02:21;0.17;;;0.17;;
20655;SDS011;10487;53.320;8.672;2023-02-12T09:05:23;0.10;;;0.10;;
20655;SDS011;10487;53.320;8.672;2023-02-12T09:08:25;0.10;;;0.10;;
20655;SDS011;10487;53.320;8.672;2023-02-12T09:11:27;0.10;;;0.10;;
20655;SDS011;10487;53.320;8.672;2023-02-12T09:14:32;0.20;;;0.20;;
20655;SDS011;10487;53.320;8.672;2023-02-12T09:17:34;0.10;;;0.10;;
20655;SDS011;10487;53.320;8.672;2023-02-12T09:20:36;0.20;;;0.20;;
20655;SDS011;10487;53.320;8.672;2023-02-12T09:23:40;0.20;;;0.20;;
20655;SDS011;10487;53.320;8.672;2023-02-12T09:26:41;0.10;;;0.10;;
20655;SDS011;10487;53.320;8.672;2023-02-12T09:29:43;0.20;;;0.20;;
20655;SDS011;10487;53.320;8.672;2023-02-12T09:32:45;0.20;;;0.20;;
20655;SDS011;10487;53.320;8.672;2023-02-12T09:35:46;0.20;;;0.20;;
20655;SDS011;10487;53.320;8.672;2023-02-12T09:38:48;0.10;;;0.10;;
20655;SDS011;10487;53.320;8.672;2023-02-12T09:41:55;0.10;;;0.10;;
20655;SDS011;10487;53.320;8.672;2023-02-12T09:45:18;0.10;;;0.10;;
20655;SDS011;10487;53.320;8.672;2023-02-12T09:48:42;0.20;;;0.20;;
20655;SDS011;10487;53.320;8.672;2023-02-12T09:51:53;0.20;;;0.20;;
20655;SDS011;10487;53.320;8.672;2023-02-12T09:54:55;0.10;;;0.10;;
20655;SDS011;10487;53.320;8.672;2023-02-12T09:58:01;0.10;;;0.10;;
20655;SDS011;10487;53.320;8.672;2023-02-12T10:01:11;0.10;;;0.10;;
20655;SDS011;10487;53.320;8.672;2023-02-12T10:04:14;0.17;;;0.17;;
20655;SDS011;10487;53.320;8.672;2023-02-12T10:29:23;0.10;;;0.10;;
20655;SDS011;10487;53.320;8.672;2023-02-12T10:32:30;0.20;;;0.20;;
20655;SDS011;10487;53.320;8.672;2023-02-12T10:35:35;0.10;;;0.10;;
20655;SDS011;10487;53.320;8.672;2023-02-12T10:38:49;0.10;;;0.10;;
20655;SDS011;10487;53.320;8.672;2023-02-12T10:45:19;0.10;;;0.10;;
20655;SDS011;10487;53.320;8.672;2023-02-12T10:48:32;0.10;;;0.10;;
20655;SDS011;10487;53.320;8.672;2023-02-12T10:54:57;0.10;;;0.10;;
20655;SDS011;10487;53.320;8.672;2023-02-12T10:58:00;0.10;;;0.10;;
20655;SDS011;10487;53.320;8.672;2023-02-12T11:01:04;0.10;;;0.10;;
20655;SDS011;10487;53.320;8.672;2023-02-12T11:04:29;0.10;;;0.10;;
20655;SDS011;10487;53.320;8.672;2023-02-12T11:07:31;0.25;;;0.25;;
20655;SDS011;10487;53.320;8.672;2023-02-12T11:10:47;0.20;;;0.20;;
20655;SDS011;10487;53.320;8.672;2023-02-12T11:13:52;0.20;;;0.20;;
20655;SDS011;10487;53.320;8.672;2023-02-12T11:16:58;0.10;;;0.10;;
20655;SDS011;10487;53.320;8.672;2023-02-12T11:26:25;0.10;;;0.10;;
20655;SDS011;10487;53.320;8.672;2023-02-12T11:29:29;0.10;;;0.10;;
20655;SDS011;10487;53.320;8.672;2023-02-12T11:32:33;0.10;;;0.10;;
20655;SDS011;10487;53.320;8.672;2023-02-12T11:35:35;0.20;;;0.20;;
20655;SDS011;10487;53.320;8.672;2023-02-12T11:38:46;0.20;;;0.20;;
20655;SDS011;10487;53.320;8.672;2023-02-12T11:41:58;0.10;;;0.10;;
20655;SDS011;10487;53.320;8.672;2023-02-12T11:45:04;0.10;;;0.10;;
20655;SDS011;10487;53.320;8.672;2023-02-12T11:48:16;0.32;;;0.32;;
20655;SDS011;10487;53.320;8.672;2023-02-12T11:51:25;0.30;;;0.30;;
20655;SDS011;10487;53.320;8.672;2023-02-12T11:54:38;0.20;;;0.20;;
20655;SDS011;10487;53.320;8.672;2023-02-12T11:57:43;0.20;;;0.20;;
20655;SDS011;10487;53.320;8.672;2023-02-12T12:04:20;0.20;;;0.20;;
20655;SDS011;10487;53.320;8.672;2023-02-12T12:07:27;0.20;;;0.20;;
20655;SDS011;10487;53.320;8.672;2023-02-12T12:10:43;0.10;;;0.10;;
20655;SDS011;10487;53.320;8.672;2023-02-12T12:17:12;0.20;;;0.20;;
20655;SDS011;10487;53.320;8.672;2023-02-12T12:20:55;0.20;;;0.20;;
20655;SDS011;10487;53.320;8.672;2023-02-12T12:24:14;0.10;;;0.10;;
20655;SDS011;10487;53.320;8.672;2023-02-12T12:40:34;0.20;;;0.20;;
20655;SDS011;10487;53.320;8.672;2023-02-12T12:43:43;0.20;;;0.20;;
20655;SDS011;10487;53.320;8.672;2023-02-12T13:00:03;0.10;;;0.10;;
20655;SDS011;10487;53.320;8.672;2023-02-12T13:03:18;0.10;;;0.10;;
20655;SDS011;10487;53.320;8.672;2023-02-12T13:13:34;0.10;;;0.10;;
20655;SDS011;10487;53.320;8.672;2023-02-12T13:16:54;0.10;;;0.10;;
20655;SDS011;10487;53.320;8.672;2023-02-12T13:26:58;0.20;;;0.20;;
20655;SDS011;10487;53.320;8.672;2023-02-12T13:30:17;0.20;;;0.20;;
20655;SDS011;10487;53.320;8.672;2023-02-12T13:33:21;0.20;;;0.20;;
20655;SDS011;10487;53.320;8.672;2023-02-12T13:36:25;0.10;;;0.10;;
20655;SDS011;10487;53.320;8.672;2023-02-12T13:39:37;0.17;;;0.17;;
20655;SDS011;10487;53.320;8.672;2023-02-12T13:42:46;0.10;;;0.10;;
20655;SDS011;10487;53.320;8.672;2023-02-12T13:46:20;0.10;;;0.10;;
20655;SDS011;10487;53.320;8.672;2023-02-12T13:52:56;0.20;;;0.20;;
20655;SDS011;10487;53.320;8.672;2023-02-12T13:56:10;0.20;;;0.20;;
20655;SDS011;10487;53.320;8.672;2023-02-12T14:05:35;0.20;;;0.20;;
20655;SDS011;10487;53.320;8.672;2023-02-12T14:08:38;0.20;;;0.20;;
20655;SDS011;10487;53.320;8.672;2023-02-12T14:11:46;0.10;;;0.10;;
20655;SDS011;10487;53.320;8.672;2023-02-12T14:14:55;0.10;;;0.10;;
20655;SDS011;10487;53.320;8.672;2023-02-12T14:18:20;0.20;;;0.20;;
20655;SDS011;10487;53.320;8.672;2023-02-12T14:21:33;0.20;;;0.20;;
20655;SDS011;10487;53.320;8.672;2023-02-12T14:27:52;0.20;;;0.20;;
20655;SDS011;10487;53.320;8.672;2023-02-12T14:37:32;0.20;;;0.20;;
20655;SDS011;10487;53.320;8.672;2023-02-12T14:40:39;0.13;;;0.13;;
20655;SDS011;10487;53.320;8.672;2023-02-12T14:43:44;0.13;;;0.13;;
20655;SDS011;10487;53.320;8.672;2023-02-12T14:47:08;0.22;;;0.22;;
20655;SDS011;10487;53.320;8.672;2023-02-12T14:50:16;0.22;;;0.22;;
20655;SDS011;10487;53.320;8.672;2023-02-12T14:53:30;0.20;;;0.20;;
20655;SDS011;10487;53.320;8.672;2023-02-12T14:56:36;0.20;;;0.20;;
20655;SDS011;10487;53.320;8.672;2023-02-12T14:59:46;0.20;;;0.20;;
20655;SDS011;10487;53.320;8.672;2023-02-12T15:02:53;0.20;;;0.20;;
20655;SDS011;10487;53.320;8.672;2023-02-12T15:06:16;0.20;;;0.20;;
20655;SDS011;10487;53.320;8.672;2023-02-12T15:09:24;0.20;;;0.20;;
20655;SDS011;10487;53.320;8.672;2023-02-12T15:12:40;0.20;;;0.20;;
20655;SDS011;10487;53.320;8.672;2023-02-12T15:19:16;0.20;;;0.20;;
20655;SDS011;10487;53.320;8.672;2023-02-12T15:25:33;0.20;;;0.20;;
20655;SDS011;10487;53.320;8.672;2023-02-12T15:28:34;0.30;;;0.30;;
20655;SDS011;10487;53.320;8.672;2023-02-12T15:31:37;0.20;;;0.20;;
20655;SDS011;10487;53.320;8.672;2023-02-12T15:34:39;0.40;;;0.40;;
20655;SDS011;10487;53.320;8.672;2023-02-12T15:37:44;0.45;;;0.30;;
20655;SDS011;10487;53.320;8.672;2023-02-12T15:40:53;0.50;;;0.40;;
20655;SDS011;10487;53.320;8.672;2023-02-12T15:43:57;0.30;;;0.30;;
20655;SDS011;10487;53.320;8.672;2023-02-12T15:47:13;0.40;;;0.40;;
20655;SDS011;10487;53.320;8.672;2023-02-12T15:50:16;0.77;;;0.50;;
20655;SDS011;10487;53.320;8.672;2023-02-12T15:53:18;1.23;;;0.50;;
20655;SDS011;10487;53.320;8.672;2023-02-12T15:56:23;0.50;;;0.30;;
20655;SDS011;10487;53.320;8.672;2023-02-12T15:59:26;0.52;;;0.45;;
20655;SDS011;10487;53.320;8.672;2023-02-12T16:02:31;0.70;;;0.50;;
20655;SDS011;10487;53.320;8.672;2023-02-12T16:05:35;0.60;;;0.40;;
20655;SDS011;10487;53.320;8.672;2023-02-12T16:08:37;0.68;;;0.30;;
20655;SDS011;10487;53.320;8.672;2023-02-12T16:11:44;0.50;;;0.40;;
20655;SDS011;10487;53.320;8.672;2023-02-12T16:14:48;0.63;;;0.50;;
20655;SDS011;10487;53.320;8.672;2023-02-12T16:18:03;1.40;;;0.80;;
20655;SDS011;10487;53.320;8.672;2023-02-12T16:21:06;1.05;;;0.70;;
20655;SDS011;10487;53.320;8.672;2023-02-12T16:24:19;1.00;;;0.50;;
20655;SDS011;10487;53.320;8.672;2023-02-12T16:30:36;0.80;;;0.60;;
20655;SDS011;10487;53.320;8.672;2023-02-12T16:33:50;0.50;;;0.40;;
20655;SDS011;10487;53.320;8.672;2023-02-12T16:36:54;0.45;;;0.32;;
20655;SDS011;10487;53.320;8.672;2023-02-12T16:43:42;0.45;;;0.43;;
20655;SDS011;10487;53.320;8.672;2023-02-12T16:46:27;0.20;;;0.20;;
20655;SDS011;10487;53.320;8.672;2023-02-12T16:49:30;0.40;;;0.40;;
20655;SDS011;10487;53.320;8.672;2023-02-12T16:52:38;0.25;;;0.25;;
20655;SDS011;10487;53.320;8.672;2023-02-12T16:55:41;0.40;;;0.25;;
20655;SDS011;10487;53.320;8.672;2023-02-12T16:58:43;0.20;;;0.20;;
20655;SDS011;10487;53.320;8.672;2023-02-12T17:01:57;0.30;;;0.30;;
20655;SDS011;10487;53.320;8.672;2023-02-12T17:05:04;0.20;;;0.20;;
20655;SDS011;10487;53.320;8.672;2023-02-12T17:08:25;0.28;;;0.28;;
20655;SDS011;10487;53.320;8.672;2023-02-12T17:11:27;0.20;;;0.20;;
20655;SDS011;10487;53.320;8.672;2023-02-12T17:14:29;0.20;;;0.20;;
20655;SDS011;10487;53.320;8.672;2023-02-12T17:17:37;0.20;;;0.20;;
20655;SDS011;10487;53.320;8.672;2023-02-12T17:20:39;0.47;;;0.30;;
20655;SDS011;10487;53.320;8.672;2023-02-12T17:23:40;0.20;;;0.20;;
20655;SDS011;10487;53.320;8.672;2023-02-12T17:26:42;0.30;;;0.30;;
20655;SDS011;10487;53.320;8.672;2023-02-12T17:29:44;0.20;;;0.20;;
20655;SDS011;10487;53.320;8.672;2023-02-12T17:32:46;0.30;;;0.30;;
20655;SDS011;10487;53.320;8.672;2023-02-12T17:35:50;0.20;;;0.20;;
20655;SDS011;10487;53.320;8.672;2023-02-12T17:38:51;0.20;;;0.20;;
20655;SDS011;10487;53.320;8.672;2023-02-12T17:41:53;0.20;;;0.20;;
20655;SDS011;10487;53.320;8.672;2023-02-12T17:44:55;0.20;;;0.20;;
20655;SDS011;10487;53.320;8.672;2023-02-12T17:47:57;0.20;;;0.20;;
20655;SDS011;10487;53.320;8.672;2023-02-12T17:50:58;0.15;;;0.15;;
20655;SDS011;10487;53.320;8.672;2023-02-12T17:54:00;0.17;;;0.17;;
20655;SDS011;10487;53.320;8.672;2023-02-12T17:57:02;0.20;;;0.20;;
20655;SDS011;10487;53.320;8.672;2023-02-12T18:00:05;0.20;;;0.20;;
20655;SDS011;10487;53.320;8.672;2023-02-12T18:03:07;0.20;;;0.20;;
20655;SDS011;10487;53.320;8.672;2023-02-12T18:06:10;0.20;;;0.20;;
20655;SDS011;10487;53.320;8.672;2023-02-12T18:09:14;0.20;;;0.20;;
20655;SDS011;10487;53.320;8.672;2023-02-12T18:12:16;0.20;;;0.20;;
20655;SDS011;10487;53.320;8.672;2023-02-12T18:15:18;0.20;;;0.20;;
20655;SDS011;10487;53.320;8.672;2023-02-12T18:18:21;0.20;;;0.20;;
20655;SDS011;10487;53.320;8.672;2023-02-12T18:21:22;0.22;;;0.22;;
20655;SDS011;10487;53.320;8.672;2023-02-12T18:24:24;0.30;;;0.30;;
20655;SDS011;10487;53.320;8.672;2023-02-12T18:27:26;0.20;;;0.20;;
20655;SDS011;10487;53.320;8.672;2023-02-12T18:30:27;0.30;;;0.30;;
20655;SDS011;10487;53.320;8.672;2023-02-12T18:33:29;0.20;;;0.20;;
20655;SDS011;10487;53.320;8.672;2023-02-12T18:36:31;0.30;;;0.30;;
20655;SDS011;10487;53.320;8.672;2023-02-12T18:39:33;0.20;;;0.20;;
20655;SDS011;10487;53.320;8.672;2023-02-12T18:42:35;0.25;;;0.25;;
20655;SDS011;10487;53.320;8.672;2023-02-12T18:45:37;0.30;;;0.20;;
20655;SDS011;10487;53.320;8.672;2023-02-12T18:48:40;0.30;;;0.30;;
20655;SDS011;10487;53.320;8.672;2023-02-12T18:51:42;0.28;;;0.25;;
20655;SDS011;10487;53.320;8.672;2023-02-12T18:54:44;0.30;;;0.30;;
20655;SDS011;10487;53.320;8.672;2023-02-12T18:57:45;0.28;;;0.28;;
20655;SDS011;10487;53.320;8.672;2023-02-12T19:00:47;0.17;;;0.17;;
20655;SDS011;10487;53.320;8.672;2023-02-12T19:03:51;0.20;;;0.20;;
20655;SDS011;10487;53.320;8.672;2023-02-12T19:06:57;0.20;;;0.20;;
20655;SDS011;10487;53.320;8.672;2023-02-12T19:09:59;0.25;;;0.25;;
20655;SDS011;10487;53.320;8.672;2023-02-12T19:13:00;0.20;;;0.20;;
20655;SDS011;10487;53.320;8.672;2023-02-12T19:16:09;2.85;;;0.30;;
20655;SDS011;10487;53.320;8.672;2023-02-12T19:19:13;0.20;;;0.20;;
20655;SDS011;10487;53.320;8.672;2023-02-12T19:22:16;0.20;;;0.20;;
20655;SDS011;10487;53.320;8.672;2023-02-12T19:25:18;0.20;;;0.20;;
20655;SDS011;10487;53.320;8.672;2023-02-12T19:28:20;0.20;;;0.20;;
20655;SDS011;10487;53.320;8.672;2023-02-12T19:31:25;0.20;;;0.20;;
20655;SDS011;10487;53.320;8.672;2023-02-12T19:34:29;0.25;;;0.25;;
20655;SDS011;10487;53.320;8.672;2023-02-12T19:37:31;0.20;;;0.20;;
20655;SDS011;10487;53.320;8.672;2023-02-12T19:40:32;0.20;;;0.20;;
20655;SDS011;10487;53.320;8.672;2023-02-12T19:43:34;0.20;;;0.20;;
20655;SDS011;10487;53.320;8.672;2023-02-12T19:46:36;0.20;;;0.20;;
20655;SDS011;10487;53.320;8.672;2023-02-12T19:49:40;0.10;;;0.10;;
20655;SDS011;10487;53.320;8.672;2023-02-12T19:52:42;0.20;;;0.20;;
20655;SDS011;10487;53.320;8.672;2023-02-12T19:55:44;0.20;;;0.20;;
20655;SDS011;10487;53.320;8.672;2023-02-12T19:58:45;0.17;;;0.17;;
20655;SDS011;10487;53.320;8.672;2023-02-12T20:01:47;0.30;;;0.30;;
20655;SDS011;10487;53.320;8.672;2023-02-12T20:04:49;0.20;;;0.20;;
20655;SDS011;10487;53.320;8.672;2023-02-12T20:07:51;0.13;;;0.13;;
20655;SDS011;10487;53.320;8.672;2023-02-12T20:10:53;0.20;;;0.20;;
20655;SDS011;10487;53.320;8.672;2023-02-12T20:13:55;0.10;;;0.10;;
20655;SDS011;10487;53.320;8.672;2023-02-12T20:16:57;0.20;;;0.20;;
20655;SDS011;10487;53.320;8.672;2023-02-12T20:19:59;0.20;;;0.20;;
20655;SDS011;10487;53.320;8.672;2023-02-12T20:23:00;0.20;;;0.20;;
20655;SDS011;10487;53.320;8.672;2023-02-12T20:26:06;0.25;;;0.25;;
20655;SDS011;10487;53.320;8.672;2023-02-12T20:29:09;0.10;;;0.10;;
20655;SDS011;10487;53.320;8.672;2023-02-12T20:32:10;0.20;;;0.20;;
20655;SDS011;10487;53.320;8.672;2023-02-12T20:35:12;0.10;;;0.10;;
20655;SDS011;10487;53.320;8.672;2023-02-12T20:38:15;0.13;;;0.13;;
20655;SDS011;10487;53.320;8.672;2023-02-12T20:41:17;0.20;;;0.20;;
20655;SDS011;10487;53.320;8.672;2023-02-12T20:44:19;0.20;;;0.20;;
20655;SDS011;10487;53.320;8.672;2023-02-12T20:47:21;0.10;;;0.10;;
20655;SDS011;10487;53.320;8.672;2023-02-12T20:50:29;0.20;;;0.20;;
20655;SDS011;10487;53.320;8.672;2023-02-12T20:53:30;0.10;;;0.10;;
20655;SDS011;10487;53.320;8.672;2023-02-12T20:56:33;0.20;;;0.20;;
20655;SDS011;10487;53.320;8.672;2023-02-12T20:59:36;0.22;;;0.20;;
20655;SDS011;10487;53.320;8.672;2023-02-12T21:02:37;0.10;;;0.10;;
20655;SDS011;10487;53.320;8.672;2023-02-12T21:05:39;0.20;;;0.20;;
20655;SDS011;10487;53.320;8.672;2023-02-12T21:08:41;0.20;;;0.20;;
20655;SDS011;10487;53.320;8.672;2023-02-12T21:11:43;0.10;;;0.10;;